createdAt,value
2018-07-14T00:00:02.136Z,58.80
2018-07-14T00:02:31.906Z,58.50
2018-07-14T00:05:01.620Z,58.30
2018-07-14T00:07:31.305Z,57.80
2018-07-14T00:10:01.034Z,57.30
2018-07-14T00:12:30.852Z,57.40
2018-07-14T00:15:00.692Z,57.80
2018-07-14T00:17:30.457Z,57.30
2018-07-14T00:20:00.095Z,57.40
2018-07-14T00:22:29.863Z,57.80
2018-07-14T00:24:59.530Z,57.90
2018-07-14T00:27:29.477Z,57.20
2018-07-14T00:29:59.151Z,57.40
2018-07-14T00:32:28.961Z,57.60
2018-07-14T00:34:58.764Z,57.30
2018-07-14T00:37:28.360Z,57.20
2018-07-14T00:39:58.146Z,57.20
2018-07-14T00:42:28.060Z,57.20
2018-07-14T00:44:57.771Z,57.20
2018-07-14T00:47:27.420Z,57.20
2018-07-14T00:49:57.294Z,57.50
2018-07-14T00:52:30.274Z,57.40
2018-07-14T00:55:02.496Z,57.90
2018-07-14T00:57:34.178Z,57.70
2018-07-14T01:00:04.138Z,58.10
2018-07-14T01:02:33.774Z,58.50
2018-07-14T01:05:03.556Z,58.60
2018-07-14T01:07:33.288Z,58.20
2018-07-14T01:10:03.221Z,58.10
2018-07-14T01:12:32.940Z,58.40
2018-07-14T01:15:02.701Z,58.40
2018-07-14T01:17:32.496Z,58.50
2018-07-14T01:20:02.311Z,58.60
2018-07-14T01:22:32.048Z,57.80
2018-07-14T01:25:01.768Z,58.00
2018-07-14T01:27:31.573Z,58.10
2018-07-14T01:30:01.212Z,57.80
2018-07-14T01:32:30.987Z,57.40
2018-07-14T01:35:00.864Z,58.40
2018-07-14T01:37:30.633Z,58.30
2018-07-14T01:40:00.459Z,57.80
2018-07-14T01:42:30.155Z,58.10
2018-07-14T01:44:59.844Z,57.80
2018-07-14T01:47:29.620Z,58.30
2018-07-14T01:49:59.392Z,58.10
2018-07-14T01:52:29.090Z,58.20
2018-07-14T01:54:58.904Z,57.90
2018-07-14T01:57:28.772Z,58.10
2018-07-14T01:59:58.424Z,59.30
2018-07-14T02:02:29.055Z,58.30
2018-07-14T02:04:58.824Z,58.40
2018-07-14T02:07:28.597Z,58.10
2018-07-14T02:09:58.460Z,58.00
2018-07-14T02:12:28.204Z,58.40
2018-07-14T02:14:57.977Z,58.90
2018-07-14T02:17:27.624Z,59.20
2018-07-14T02:19:57.417Z,59.10
2018-07-14T02:22:27.105Z,59.00
2018-07-14T02:24:57.075Z,58.60
2018-07-14T02:27:26.655Z,58.80
2018-07-14T02:29:56.372Z,58.60
2018-07-14T02:32:26.245Z,58.40
2018-07-14T02:34:56.013Z,59.30
2018-07-14T02:37:25.668Z,58.60
2018-07-14T02:39:55.448Z,60.00
2018-07-14T02:42:25.211Z,58.40
2018-07-14T02:44:55.132Z,59.00
2018-07-14T02:47:24.937Z,59.10
2018-07-14T02:49:54.675Z,59.50
2018-07-14T02:52:24.493Z,59.00
2018-07-14T02:54:54.148Z,59.50
2018-07-14T02:59:53.275Z,59.00
2018-07-14T03:02:23.021Z,59.10
2018-07-14T03:04:52.805Z,59.90
2018-07-14T03:07:22.595Z,59.30
2018-07-14T03:09:52.363Z,59.30
2018-07-14T03:12:22.221Z,59.10
2018-07-14T03:14:51.956Z,59.30
2018-07-14T03:17:21.759Z,59.30
2018-07-14T03:19:51.497Z,59.00
2018-07-14T03:22:21.277Z,59.10
2018-07-14T03:24:50.921Z,59.90
2018-07-14T03:27:20.597Z,59.30
2018-07-14T03:29:50.292Z,59.30
2018-07-14T03:32:20.056Z,59.30
2018-07-14T03:34:49.812Z,59.30
2018-07-14T03:37:19.570Z,59.50
2018-07-14T03:39:49.436Z,59.30
2018-07-14T03:42:19.265Z,59.30
2018-07-14T03:44:48.957Z,59.30
2018-07-14T03:47:18.718Z,59.30
2018-07-14T03:49:48.408Z,59.50
2018-07-14T03:52:17.983Z,59.70
2018-07-14T03:54:47.648Z,59.70
2018-07-14T03:57:17.316Z,59.50
2018-07-14T03:59:47.077Z,59.90
2018-07-14T04:02:16.855Z,60.40
2018-07-14T04:04:46.640Z,59.60
2018-07-14T04:07:16.308Z,59.50
2018-07-14T04:09:46.166Z,59.40
2018-07-14T04:12:15.913Z,59.40
2018-07-14T04:14:45.841Z,59.50
2018-07-14T04:17:15.454Z,58.80
2018-07-14T04:19:45.112Z,59.50
2018-07-14T04:22:14.659Z,59.50
2018-07-14T04:24:44.336Z,59.20
2018-07-14T04:27:14.039Z,59.50
2018-07-14T04:29:43.686Z,59.50
2018-07-14T04:32:13.369Z,59.70
2018-07-14T04:34:43.168Z,60.20
2018-07-14T04:37:12.817Z,59.60
2018-07-14T04:39:42.677Z,60.20
2018-07-14T04:42:12.421Z,60.00
2018-07-14T04:44:42.201Z,59.60
2018-07-14T04:47:11.964Z,59.90
2018-07-14T04:49:41.569Z,61.30
2018-07-14T04:52:11.390Z,59.80
2018-07-14T04:54:41.198Z,59.50
2018-07-14T04:57:11.007Z,59.80
2018-07-14T04:59:40.585Z,61.70
2018-07-14T05:02:10.275Z,60.80
2018-07-14T05:04:40.026Z,59.70
2018-07-14T05:07:09.893Z,60.50
2018-07-14T05:09:39.661Z,59.50
2018-07-14T05:12:09.460Z,59.40
2018-07-14T05:14:39.245Z,59.00
2018-07-14T05:17:08.994Z,58.90
2018-07-14T05:19:38.467Z,58.00
2018-07-14T05:22:08.096Z,58.40
2018-07-14T05:24:37.889Z,59.60
2018-07-14T05:27:07.589Z,58.70
2018-07-14T05:29:37.244Z,58.70
2018-07-14T05:32:07.195Z,58.20
2018-07-14T05:34:36.920Z,58.40
2018-07-14T05:37:06.831Z,58.20
2018-07-14T05:39:36.593Z,57.40
2018-07-14T05:42:06.550Z,57.30
2018-07-14T05:44:36.199Z,57.30
2018-07-14T05:47:06.012Z,57.90
2018-07-14T05:49:35.620Z,57.40
2018-07-14T05:52:05.350Z,57.20
2018-07-14T05:54:35.945Z,56.40
2018-07-14T05:57:06.089Z,56.30
2018-07-14T05:59:35.597Z,56.50
2018-07-14T06:02:05.202Z,55.60
2018-07-14T06:04:34.911Z,56.00
2018-07-14T06:07:04.729Z,55.70
2018-07-14T06:09:34.438Z,55.40
2018-07-14T06:12:04.267Z,55.00
2018-07-14T06:14:34.077Z,55.10
2018-07-14T06:17:03.895Z,55.70
2018-07-14T06:19:33.655Z,54.80
2018-07-14T06:22:03.598Z,55.30
2018-07-14T06:24:33.462Z,55.30
2018-07-14T06:27:03.217Z,54.90
2018-07-14T06:29:33.185Z,54.60
2018-07-14T06:32:02.893Z,55.10
2018-07-14T06:34:32.714Z,54.80
2018-07-14T06:37:02.470Z,53.20
2018-07-14T06:39:32.237Z,52.70
2018-07-14T06:42:02.001Z,53.20
2018-07-14T06:44:31.776Z,53.30
2018-07-14T06:47:01.504Z,53.60
2018-07-14T06:49:31.329Z,52.10
2018-07-14T06:52:01.194Z,52.80
2018-07-14T06:54:30.823Z,51.20
2018-07-14T06:57:00.607Z,51.00
2018-07-14T06:59:30.374Z,48.60
2018-07-14T07:02:00.154Z,42.30
2018-07-14T07:04:29.688Z,39.20
2018-07-14T07:06:59.469Z,36.50
2018-07-14T07:09:29.158Z,34.40
2018-07-14T07:11:59.549Z,31.40
2018-07-14T07:14:29.241Z,29.50
2018-07-14T07:16:59.117Z,29.00
2018-07-14T07:19:28.765Z,28.00
2018-07-14T07:21:58.580Z,29.60
2018-07-14T07:24:28.443Z,27.50
2018-07-14T07:26:58.073Z,26.00
2018-07-14T07:29:27.860Z,28.10
2018-07-14T07:34:26.607Z,26.10
2018-07-14T07:36:56.451Z,26.20
2018-07-14T07:39:26.321Z,25.50
2018-07-14T07:41:56.061Z,25.10
2018-07-14T07:44:25.886Z,25.30
2018-07-14T07:46:55.681Z,25.90
2018-07-14T07:49:25.636Z,25.40
2018-07-14T07:51:55.409Z,25.20
2018-07-14T07:54:25.176Z,24.60
2018-07-14T07:56:55.015Z,25.10
2018-07-14T07:59:24.888Z,25.10
2018-07-14T08:04:23.734Z,26.00
2018-07-14T08:06:53.342Z,25.30
2018-07-14T08:09:23.135Z,25.60
2018-07-14T08:11:52.879Z,24.90
2018-07-14T08:14:22.736Z,24.80
2018-07-14T08:16:52.308Z,24.40
2018-07-14T08:19:22.075Z,24.40
2018-07-14T08:21:51.814Z,24.80
2018-07-14T08:24:21.496Z,25.00
2018-07-14T08:26:51.195Z,25.00
2018-07-14T08:29:20.841Z,24.40
2018-07-14T08:31:50.932Z,24.50
2018-07-14T08:34:20.556Z,25.00
2018-07-14T08:36:50.437Z,25.10
2018-07-14T08:41:49.284Z,23.60
2018-07-14T08:44:19.084Z,24.70
2018-07-14T08:46:48.712Z,24.80
2018-07-14T08:49:18.525Z,23.50
2018-07-14T08:51:48.331Z,24.70
2018-07-14T08:54:18.152Z,24.70
2018-07-14T08:56:47.833Z,24.80
2018-07-14T08:59:17.573Z,24.90
2018-07-14T09:01:47.264Z,24.60
2018-07-14T09:04:17.125Z,24.70
2018-07-14T09:09:16.073Z,24.10
2018-07-14T09:11:45.702Z,24.10
2018-07-14T09:14:15.509Z,23.10
2018-07-14T09:16:45.381Z,23.50
2018-07-14T09:19:15.148Z,23.50
2018-07-14T09:21:44.933Z,23.70
2018-07-14T09:24:14.672Z,23.30
2018-07-14T09:26:44.347Z,23.60
2018-07-14T09:29:14.436Z,23.70
2018-07-14T09:34:13.373Z,22.80
2018-07-14T09:36:43.114Z,23.10
2018-07-14T09:39:12.898Z,23.70
2018-07-14T09:41:42.582Z,22.80
2018-07-14T09:44:12.241Z,23.80
2018-07-14T09:46:41.921Z,23.20
2018-07-14T09:49:11.649Z,24.30
2018-07-14T09:51:41.536Z,23.40
2018-07-14T09:54:11.232Z,23.30
2018-07-14T09:56:40.889Z,24.00
2018-07-14T09:59:10.641Z,24.10
2018-07-14T10:04:09.604Z,25.00
2018-07-14T10:06:39.411Z,26.00
2018-07-14T10:09:09.340Z,26.40
2018-07-14T10:11:39.133Z,26.10
2018-07-14T10:14:08.912Z,26.00
2018-07-14T10:16:38.653Z,26.80
2018-07-14T10:19:08.328Z,26.60
2018-07-14T10:24:07.081Z,25.80
2018-07-14T10:26:37.043Z,25.80
2018-07-14T10:31:35.913Z,25.50
2018-07-14T10:34:06.015Z,25.90
2018-07-14T10:36:35.716Z,26.90
2018-07-14T10:39:05.849Z,26.90
2018-07-14T10:41:35.692Z,29.10
2018-07-14T10:44:05.437Z,29.40
2018-07-14T10:46:35.330Z,30.10
2018-07-14T10:49:05.156Z,30.50
2018-07-14T10:54:03.897Z,30.30
2018-07-14T10:56:33.700Z,31.00
2018-07-14T10:59:03.537Z,31.30
2018-07-14T11:01:33.325Z,29.90
2018-07-14T11:04:03.162Z,32.60
2018-07-14T11:06:32.952Z,31.10
2018-07-14T11:09:02.647Z,33.30
2018-07-14T11:11:32.270Z,32.30
2018-07-14T11:14:02.050Z,32.30
2018-07-14T11:16:31.784Z,32.50
2018-07-14T11:19:01.511Z,32.00
2018-07-14T11:21:31.330Z,32.90
2018-07-14T11:24:00.989Z,32.60
2018-07-14T11:28:59.866Z,32.00
2018-07-14T11:31:29.664Z,31.70
2018-07-14T11:33:59.524Z,31.60
2018-07-14T11:36:29.356Z,31.00
2018-07-14T11:38:59.148Z,30.70
2018-07-14T11:41:28.914Z,31.90
2018-07-14T11:43:58.773Z,31.70
2018-07-14T11:46:28.534Z,33.10
2018-07-14T11:48:58.238Z,32.40
2018-07-14T11:51:27.904Z,33.20
2018-07-14T11:53:57.451Z,34.80
2018-07-14T11:56:27.222Z,33.90
2018-07-14T11:58:56.978Z,35.00
2018-07-14T12:01:26.963Z,37.10
2018-07-14T12:03:56.692Z,38.40
2018-07-14T12:06:26.461Z,38.30
2018-07-14T12:11:25.114Z,37.30
2018-07-14T12:13:54.914Z,38.30
2018-07-14T12:16:24.539Z,38.60
2018-07-14T12:18:54.252Z,41.40
2018-07-14T12:21:24.015Z,40.50
2018-07-14T12:26:22.931Z,40.30
2018-07-14T12:28:52.682Z,37.80
2018-07-14T12:31:22.514Z,39.60
2018-07-14T12:33:52.268Z,40.70
2018-07-14T12:36:22.014Z,39.60
2018-07-14T12:38:51.804Z,39.90
2018-07-14T12:41:21.563Z,39.40
2018-07-14T12:43:51.385Z,39.30
2018-07-14T12:46:21.163Z,40.00
2018-07-14T12:48:50.977Z,40.60
2018-07-14T12:51:20.584Z,39.80
2018-07-14T12:53:50.411Z,37.70
2018-07-14T12:58:49.478Z,35.20
2018-07-14T13:01:19.221Z,33.80
2018-07-14T13:03:49.090Z,37.80
2018-07-14T13:06:18.843Z,37.70
2018-07-14T13:08:48.584Z,34.20
2018-07-14T13:11:18.367Z,34.40
2018-07-14T13:13:48.313Z,34.90
2018-07-14T13:16:18.240Z,34.00
2018-07-14T13:21:17.085Z,34.50
2018-07-14T13:23:46.918Z,36.80
2018-07-14T13:26:16.709Z,36.50
2018-07-14T13:28:46.485Z,36.60
2018-07-14T13:31:16.272Z,36.20
2018-07-14T13:33:46.039Z,39.70
2018-07-14T13:36:15.825Z,37.70
2018-07-14T13:38:51.613Z,38.30
2018-07-14T13:41:15.379Z,35.10
2018-07-14T13:43:45.192Z,38.50
2018-07-14T13:46:15.124Z,40.00
2018-07-14T13:48:44.817Z,36.10
2018-07-14T13:51:14.704Z,38.60
2018-07-14T13:53:44.435Z,36.20
2018-07-14T13:56:14.342Z,34.80
2018-07-14T13:58:44.070Z,36.60
2018-07-14T14:01:13.860Z,37.20
2018-07-14T14:03:43.601Z,37.80
2018-07-14T14:06:13.392Z,38.20
2018-07-14T14:08:43.139Z,37.70
2018-07-14T14:11:12.898Z,38.10
2018-07-14T14:13:42.488Z,38.60
2018-07-14T14:16:12.272Z,37.30
2018-07-14T14:18:41.938Z,37.30
2018-07-14T14:21:11.724Z,37.90
2018-07-14T14:23:41.360Z,39.30
2018-07-14T14:26:11.037Z,38.70
2018-07-14T14:28:40.892Z,38.90
2018-07-14T14:31:10.733Z,40.00
2018-07-14T14:33:40.632Z,39.20
2018-07-14T14:36:10.496Z,40.10
2018-07-14T14:38:40.247Z,40.00
2018-07-14T14:43:39.235Z,40.30
2018-07-14T14:46:09.041Z,40.90
2018-07-14T14:48:38.836Z,41.30
2018-07-14T14:51:08.488Z,41.00
2018-07-14T14:53:38.476Z,40.50
2018-07-14T14:56:08.444Z,41.00
2018-07-14T14:58:38.295Z,40.30
2018-07-14T15:01:08.037Z,41.10
2018-07-14T15:03:38.034Z,41.60
2018-07-14T15:06:07.988Z,42.10
2018-07-14T15:08:37.793Z,43.10
2018-07-14T15:11:07.612Z,42.30
2018-07-14T15:13:37.688Z,42.80
2018-07-14T15:16:07.325Z,42.40
2018-07-14T15:18:37.018Z,43.70
2018-07-14T15:21:06.848Z,43.70
2018-07-14T15:23:36.541Z,43.20
2018-07-14T15:26:06.268Z,43.40
2018-07-14T15:28:35.882Z,45.00
2018-07-14T15:31:05.789Z,45.00
2018-07-14T15:33:35.608Z,43.40
2018-07-14T15:36:05.543Z,44.90
2018-07-14T15:38:35.297Z,44.50
2018-07-14T15:41:05.574Z,44.90
2018-07-14T15:43:36.048Z,44.60
2018-07-14T15:46:07.023Z,45.40
2018-07-14T15:48:36.740Z,45.30
2018-07-14T15:51:06.829Z,44.80
2018-07-14T15:53:36.649Z,46.00
2018-07-14T15:56:07.128Z,46.20
2018-07-14T15:58:36.521Z,46.70
2018-07-14T16:01:06.221Z,46.20
2018-07-14T16:03:35.736Z,47.70
2018-07-14T16:06:05.327Z,47.20
2018-07-14T16:08:35.401Z,47.70
2018-07-14T16:11:04.797Z,48.30
2018-07-14T16:13:34.560Z,48.60
2018-07-14T16:16:03.976Z,48.10
2018-07-14T16:18:33.370Z,47.80
2018-07-14T16:21:03.067Z,48.30
2018-07-14T16:23:33.293Z,48.30
2018-07-14T16:26:04.742Z,47.80
2018-07-14T16:28:34.962Z,48.60
2018-07-14T16:31:04.987Z,47.90
2018-07-14T16:33:34.713Z,48.10
2018-07-14T16:36:04.744Z,48.20
2018-07-14T16:38:34.509Z,49.00
2018-07-14T16:41:04.564Z,48.80
2018-07-14T16:43:34.630Z,49.10
2018-07-14T16:46:04.080Z,49.40
2018-07-14T16:48:33.448Z,49.20
2018-07-14T16:51:02.913Z,49.90
2018-07-14T16:53:32.363Z,50.40
2018-07-14T16:56:01.809Z,50.60
2018-07-14T16:58:31.688Z,50.20
2018-07-14T17:01:01.501Z,50.10
2018-07-14T17:03:31.189Z,50.50
2018-07-14T17:06:00.645Z,51.30
2018-07-14T17:08:30.012Z,50.80
2018-07-14T17:10:59.412Z,50.70
2018-07-14T17:13:28.837Z,50.60
2018-07-14T17:15:58.735Z,50.30
2018-07-14T17:18:28.239Z,50.40
2018-07-14T17:20:58.201Z,50.60
2018-07-14T17:23:27.693Z,51.00
2018-07-14T17:25:58.263Z,51.50
2018-07-14T17:28:27.930Z,51.50
2018-07-14T17:30:57.701Z,51.50
2018-07-14T17:33:27.064Z,51.60
2018-07-14T17:35:56.703Z,51.40
2018-07-14T17:38:26.076Z,51.40
2018-07-14T17:40:55.925Z,51.50
2018-07-14T17:43:25.354Z,50.80
2018-07-14T17:45:55.200Z,51.60
2018-07-14T17:48:24.963Z,51.50
2018-07-14T17:50:54.888Z,51.50
2018-07-14T17:53:24.441Z,51.20
2018-07-14T17:55:53.860Z,51.40
2018-07-14T17:58:23.244Z,51.70
2018-07-14T18:00:53.280Z,52.20
2018-07-14T18:03:23.064Z,52.30
2018-07-14T18:05:52.833Z,52.90
2018-07-14T18:08:22.236Z,52.70
2018-07-14T18:10:52.336Z,53.10
2018-07-14T18:13:21.732Z,53.30
2018-07-14T18:15:51.346Z,52.80
2018-07-14T18:18:20.965Z,53.10
2018-07-14T18:20:50.777Z,53.40
2018-07-14T18:23:20.545Z,53.30
2018-07-14T18:25:50.192Z,53.20
2018-07-14T18:28:20.008Z,54.00
2018-07-14T18:30:49.777Z,54.30
2018-07-14T18:33:19.424Z,54.90
2018-07-14T18:35:48.847Z,53.70
2018-07-14T18:38:18.259Z,54.00
2018-07-14T18:40:48.462Z,53.70
2018-07-14T18:43:18.325Z,55.10
2018-07-14T18:45:48.098Z,55.40
2018-07-14T18:48:17.490Z,55.30
2018-07-14T18:50:46.936Z,54.80
2018-07-14T18:53:16.316Z,55.30
2018-07-14T18:55:45.680Z,56.00
2018-07-14T18:58:15.084Z,55.40
2018-07-14T19:00:44.480Z,54.60
2018-07-14T19:03:14.206Z,54.50
2018-07-14T19:05:43.868Z,55.20
2018-07-14T19:08:14.002Z,55.30
2018-07-14T19:10:44.478Z,55.10
2018-07-14T19:13:14.790Z,54.40
2018-07-14T19:15:44.848Z,54.10
2018-07-14T19:18:15.317Z,54.40
2018-07-14T19:20:45.296Z,54.70
2018-07-14T19:23:15.586Z,53.90
2018-07-14T19:25:45.755Z,54.40
2018-07-14T19:28:15.559Z,54.90
2018-07-14T19:30:46.310Z,55.10
2018-07-14T19:33:18.500Z,54.30
2018-07-14T19:35:49.249Z,55.50
2018-07-14T19:38:19.480Z,55.80
2018-07-14T19:40:48.843Z,55.70
2018-07-14T19:43:18.273Z,56.20
2018-07-14T19:45:48.545Z,55.80
2018-07-14T19:48:17.927Z,57.10
2018-07-14T19:50:47.319Z,56.00
2018-07-14T19:53:16.756Z,56.60
2018-07-14T19:55:46.155Z,56.60
2018-07-14T19:58:15.592Z,56.70
2018-07-14T20:00:44.993Z,56.10
2018-07-14T20:03:14.349Z,55.60
2018-07-14T20:05:43.761Z,56.70
2018-07-14T20:08:13.132Z,56.40
2018-07-14T20:10:42.582Z,56.10
2018-07-14T20:13:11.941Z,55.20
2018-07-14T20:15:41.346Z,55.30
2018-07-14T20:18:10.729Z,55.80
2018-07-14T20:20:40.087Z,56.40
2018-07-14T20:23:09.514Z,57.00
2018-07-14T20:25:38.907Z,56.30
2018-07-14T20:28:08.328Z,56.80
2018-07-14T20:30:37.751Z,57.20
2018-07-14T20:33:07.172Z,57.30
2018-07-14T20:35:36.566Z,57.10
2018-07-14T20:38:06.012Z,57.50
2018-07-14T20:40:35.431Z,57.60
2018-07-14T20:43:04.815Z,57.70
2018-07-14T20:45:34.236Z,57.80
2018-07-14T20:48:03.658Z,57.50
2018-07-14T20:50:33.039Z,57.60
2018-07-14T20:53:02.431Z,57.50
2018-07-14T20:55:31.864Z,57.10
2018-07-14T20:58:01.606Z,57.20
2018-07-14T21:00:30.974Z,56.80
2018-07-14T21:03:00.356Z,56.70
2018-07-14T21:05:29.744Z,56.90
2018-07-14T21:07:59.169Z,57.30
2018-07-14T21:10:28.616Z,56.80
2018-07-14T21:12:57.998Z,56.80
2018-07-14T21:15:27.361Z,56.70
2018-07-14T21:17:56.785Z,56.80
2018-07-14T21:20:26.184Z,57.00
2018-07-14T21:22:55.550Z,56.80
2018-07-14T21:25:25.214Z,56.80
2018-07-14T21:27:55.079Z,57.50
2018-07-14T21:30:25.037Z,57.40
2018-07-14T21:32:54.805Z,57.80
2018-07-14T21:35:24.355Z,57.70
2018-07-14T21:37:54.306Z,58.30
2018-07-14T21:40:23.990Z,58.10
2018-07-14T21:42:53.688Z,58.10
2018-07-14T21:45:23.372Z,58.00
2018-07-14T21:47:53.113Z,58.20
2018-07-14T21:50:22.796Z,58.00
2018-07-14T21:52:52.631Z,58.30
2018-07-14T21:55:22.552Z,58.00
2018-07-14T21:57:52.461Z,57.50
2018-07-14T22:00:32.561Z,58.00
2018-07-14T22:03:04.277Z,57.50
2018-07-14T22:05:34.173Z,58.40
2018-07-14T22:08:04.006Z,58.40
2018-07-14T22:10:33.919Z,58.00
2018-07-14T22:13:03.721Z,57.90
2018-07-14T22:15:33.514Z,58.20
2018-07-14T22:18:03.316Z,58.30
2018-07-14T22:20:33.040Z,57.80
2018-07-14T22:23:02.817Z,57.80
2018-07-14T22:25:32.689Z,57.80
2018-07-14T22:28:02.553Z,57.70
2018-07-14T22:30:32.288Z,57.80
2018-07-14T22:33:01.964Z,57.50
2018-07-14T22:35:31.730Z,56.90
2018-07-14T22:38:01.608Z,57.20
2018-07-14T22:40:31.551Z,57.00
2018-07-14T22:43:01.435Z,56.60
2018-07-14T22:45:31.230Z,56.40
2018-07-14T22:48:00.911Z,57.20
2018-07-14T22:50:30.600Z,56.60
2018-07-14T22:53:00.405Z,56.80
2018-07-14T22:55:30.220Z,56.60
2018-07-14T22:57:59.917Z,56.90
2018-07-14T23:00:29.712Z,57.00
2018-07-14T23:02:59.345Z,56.10
2018-07-14T23:05:29.254Z,56.10
2018-07-14T23:07:58.893Z,56.10
2018-07-14T23:10:28.704Z,56.70
2018-07-14T23:12:58.503Z,56.60
2018-07-14T23:15:28.323Z,55.90
2018-07-14T23:17:58.050Z,56.40
2018-07-14T23:20:27.831Z,55.90
2018-07-14T23:22:57.720Z,56.00
2018-07-14T23:25:27.459Z,56.10
2018-07-14T23:27:57.332Z,56.10
2018-07-14T23:30:26.989Z,56.00
2018-07-14T23:32:56.844Z,55.90
2018-07-14T23:35:26.505Z,55.50
2018-07-14T23:37:56.180Z,55.60
2018-07-14T23:40:25.923Z,56.10
2018-07-14T23:42:55.620Z,56.70
2018-07-14T23:45:25.414Z,56.20
2018-07-14T23:47:55.029Z,56.40
2018-07-14T23:50:24.640Z,57.10
2018-07-14T23:52:54.431Z,56.90
2018-07-14T23:55:24.162Z,55.90
2018-07-14T23:57:54.069Z,56.60
